sensor_id;sensor_type;location;lat;lon;timestamp;pressure;altitude;pressure_sealevel;temperature;humidity
82931;BME280;72705;53.346;10.248;2024-03-29T00:00:42;99426.50;;;6.61;100.00
82931;BME280;72705;53.346;10.248;2024-03-29T00:03:10;99425.31;;;6.64;99.12
82931;BME280;72705;53.346;10.248;2024-03-29T00:05:36;99424.16;;;6.50;100.00
82931;BME280;72705;53.346;10.248;2024-03-29T00:08:03;99413.63;;;6.48;100.00
82931;BME280;72705;53.346;10.248;2024-03-29T00:10:28;99406.63;;;6.39;100.00
82931;BME280;72705;53.346;10.248;2024-03-29T00:12:55;99420.69;;;6.41;100.00
82931;BME280;72705;53.346;10.248;2024-03-29T00:15:20;99422.69;;;6.31;100.00
82931;BME280;72705;53.346;10.248;2024-03-29T00:17:46;99420.66;;;6.25;100.00
82931;BME280;72705;53.346;10.248;2024-03-29T00:20:11;99418.81;;;6.18;100.00
82931;BME280;72705;53.346;10.248;2024-03-29T00:22:37;99425.38;;;6.23;100.00
82931;BME280;72705;53.346;10.248;2024-03-29T00:25:02;99432.41;;;6.16;100.00
82931;BME280;72705;53.346;10.248;2024-03-29T00:27:28;99421.53;;;6.09;100.00
82931;BME280;72705;53.346;10.248;2024-03-29T00:29:53;99431.22;;;6.11;100.00
82931;BME280;72705;53.346;10.248;2024-03-29T00:32:22;99422.19;;;6.03;100.00
82931;BME280;72705;53.346;10.248;2024-03-29T00:34:49;99430.56;;;6.08;100.00
82931;BME280;72705;53.346;10.248;2024-03-29T00:37:15;99425.72;;;6.04;100.00
82931;BME280;72705;53.346;10.248;2024-03-29T00:39:41;99419.19;;;5.98;100.00
82931;BME280;72705;53.346;10.248;2024-03-29T00:42:07;99421.00;;;6.06;100.00
82931;BME280;72705;53.346;10.248;2024-03-29T00:44:34;99416.50;;;6.06;100.00
82931;BME280;72705;53.346;10.248;2024-03-29T00:47:03;99418.53;;;6.04;100.00
82931;BME280;72705;53.346;10.248;2024-03-29T00:49:29;99418.00;;;6.01;100.00
82931;BME280;72705;53.346;10.248;2024-03-29T00:51:55;99419.66;;;6.02;100.00
82931;BME280;72705;53.346;10.248;2024-03-29T00:54:20;99415.97;;;5.95;100.00
82931;BME280;72705;53.346;10.248;2024-03-29T00:56:45;99426.00;;;5.93;100.00
82931;BME280;72705;53.346;10.248;2024-03-29T00:59:10;99420.00;;;5.99;100.00
82931;BME280;72705;53.346;10.248;2024-03-29T01:01:36;99418.34;;;5.98;100.00
82931;BME280;72705;53.346;10.248;2024-03-29T01:04:01;99417.50;;;5.89;100.00
82931;BME280;72705;53.346;10.248;2024-03-29T01:06:26;99420.63;;;5.85;100.00
82931;BME280;72705;53.346;10.248;2024-03-29T01:08:53;99427.19;;;5.90;100.00
82931;BME280;72705;53.346;10.248;2024-03-29T01:11:18;99430.72;;;5.91;100.00
82931;BME280;72705;53.346;10.248;2024-03-29T01:13:44;99421.28;;;5.87;100.00
82931;BME280;72705;53.346;10.248;2024-03-29T01:16:09;99413.75;;;5.82;100.00
82931;BME280;72705;53.346;10.248;2024-03-29T01:18:36;99427.47;;;5.71;100.00
82931;BME280;72705;53.346;10.248;2024-03-29T01:21:01;99433.00;;;5.78;100.00
82931;BME280;72705;53.346;10.248;2024-03-29T01:23:26;99428.28;;;5.63;100.00
82931;BME280;72705;53.346;10.248;2024-03-29T01:25:53;99420.63;;;5.77;100.00
82931;BME280;72705;53.346;10.248;2024-03-29T01:28:18;99421.94;;;5.73;100.00
82931;BME280;72705;53.346;10.248;2024-03-29T01:30:51;99424.75;;;5.63;100.00
82931;BME280;72705;53.346;10.248;2024-03-29T01:33:18;99428.97;;;5.74;100.00
82931;BME280;72705;53.346;10.248;2024-03-29T01:35:43;99430.44;;;5.60;100.00
82931;BME280;72705;53.346;10.248;2024-03-29T01:38:09;99427.25;;;5.56;100.00
82931;BME280;72705;53.346;10.248;2024-03-29T01:40:34;99426.91;;;5.51;100.00
82931;BME280;72705;53.346;10.248;2024-03-29T01:43:00;99431.56;;;5.49;100.00
82931;BME280;72705;53.346;10.248;2024-03-29T01:45:26;99428.09;;;5.49;100.00
82931;BME280;72705;53.346;10.248;2024-03-29T01:47:51;99433.91;;;5.44;100.00
82931;BME280;72705;53.346;10.248;2024-03-29T01:50:17;99429.53;;;5.43;100.00
82931;BME280;72705;53.346;10.248;2024-03-29T01:52:43;99427.25;;;5.48;100.00
82931;BME280;72705;53.346;10.248;2024-03-29T01:55:08;99430.22;;;5.45;100.00
82931;BME280;72705;53.346;10.248;2024-03-29T01:57:35;99427.41;;;5.47;100.00
82931;BME280;72705;53.346;10.248;2024-03-29T02:00:01;99435.91;;;5.50;100.00
82931;BME280;72705;53.346;10.248;2024-03-29T02:02:30;99431.91;;;5.46;100.00
82931;BME280;72705;53.346;10.248;2024-03-29T02:04:55;99430.56;;;5.42;100.00
82931;BME280;72705;53.346;10.248;2024-03-29T02:07:22;99430.06;;;5.47;100.00
82931;BME280;72705;53.346;10.248;2024-03-29T02:09:48;99444.59;;;5.44;100.00
82931;BME280;72705;53.346;10.248;2024-03-29T02:12:13;99441.91;;;5.44;100.00
82931;BME280;72705;53.346;10.248;2024-03-29T02:14:39;99447.25;;;5.36;100.00
82931;BME280;72705;53.346;10.248;2024-03-29T02:17:06;99441.88;;;5.28;100.00
82931;BME280;72705;53.346;10.248;2024-03-29T02:19:31;99439.53;;;5.33;100.00
82931;BME280;72705;53.346;10.248;2024-03-29T02:21:59;99438.72;;;5.33;100.00
82931;BME280;72705;53.346;10.248;2024-03-29T02:24:26;99441.88;;;5.28;100.00
82931;BME280;72705;53.346;10.248;2024-03-29T02:26:54;99443.94;;;5.42;100.00
82931;BME280;72705;53.346;10.248;2024-03-29T02:29:19;99442.56;;;5.30;100.00
82931;BME280;72705;53.346;10.248;2024-03-29T02:31:45;99446.56;;;5.34;100.00
82931;BME280;72705;53.346;10.248;2024-03-29T02:34:10;99451.41;;;5.31;100.00
82931;BME280;72705;53.346;10.248;2024-03-29T02:36:35;99454.59;;;5.34;100.00
82931;BME280;72705;53.346;10.248;2024-03-29T02:39:01;99467.28;;;5.32;100.00
82931;BME280;72705;53.346;10.248;2024-03-29T02:41:27;99472.81;;;5.31;100.00
82931;BME280;72705;53.346;10.248;2024-03-29T02:43:55;99465.94;;;5.28;100.00
82931;BME280;72705;53.346;10.248;2024-03-29T02:46:21;99469.25;;;5.22;100.00
82931;BME280;72705;53.346;10.248;2024-03-29T02:48:46;99478.97;;;5.31;100.00
82931;BME280;72705;53.346;10.248;2024-03-29T02:51:11;99470.88;;;5.15;100.00
82931;BME280;72705;53.346;10.248;2024-03-29T02:53:37;99474.25;;;5.25;100.00
82931;BME280;72705;53.346;10.248;2024-03-29T02:56:03;99468.56;;;5.20;100.00
82931;BME280;72705;53.346;10.248;2024-03-29T02:58:29;99467.69;;;5.11;100.00
82931;BME280;72705;53.346;10.248;2024-03-29T03:00:54;99472.00;;;5.04;100.00
82931;BME280;72705;53.346;10.248;2024-03-29T03:03:20;99464.34;;;5.09;100.00
82931;BME280;72705;53.346;10.248;2024-03-29T03:05:45;99457.50;;;5.15;100.00
82931;BME280;72705;53.346;10.248;2024-03-29T03:08:10;99462.03;;;5.14;100.00
82931;BME280;72705;53.346;10.248;2024-03-29T03:10:54;99451.53;;;5.21;100.00
82931;BME280;72705;53.346;10.248;2024-03-29T03:13:28;99455.59;;;5.33;100.00
82931;BME280;72705;53.346;10.248;2024-03-29T03:15:54;99443.56;;;5.29;100.00
82931;BME280;72705;53.346;10.248;2024-03-29T03:18:20;99440.19;;;5.27;100.00
82931;BME280;72705;53.346;10.248;2024-03-29T03:20:56;99447.88;;;5.22;100.00
82931;BME280;72705;53.346;10.248;2024-03-29T03:23:25;99440.00;;;5.20;100.00
82931;BME280;72705;53.346;10.248;2024-03-29T03:25:57;99444.50;;;5.20;100.00
82931;BME280;72705;53.346;10.248;2024-03-29T03:28:23;99445.50;;;5.19;100.00
82931;BME280;72705;53.346;10.248;2024-03-29T03:30:49;99442.31;;;5.15;100.00
82931;BME280;72705;53.346;10.248;2024-03-29T03:33:15;99424.16;;;5.27;100.00
82931;BME280;72705;53.346;10.248;2024-03-29T03:35:44;99437.56;;;5.35;100.00
82931;BME280;72705;53.346;10.248;2024-03-29T03:38:10;99429.84;;;5.24;100.00
82931;BME280;72705;53.346;10.248;2024-03-29T03:40:36;99420.53;;;5.36;100.00
82931;BME280;72705;53.346;10.248;2024-03-29T03:43:02;99423.69;;;5.40;100.00
82931;BME280;72705;53.346;10.248;2024-03-29T03:45:28;99440.03;;;5.28;100.00
82931;BME280;72705;53.346;10.248;2024-03-29T03:47:54;99453.41;;;5.28;100.00
82931;BME280;72705;53.346;10.248;2024-03-29T03:50:19;99446.38;;;5.27;100.00
82931;BME280;72705;53.346;10.248;2024-03-29T03:52:44;99472.25;;;5.27;100.00
82931;BME280;72705;53.346;10.248;2024-03-29T03:55:10;99455.53;;;5.17;100.00
82931;BME280;72705;53.346;10.248;2024-03-29T03:57:35;99430.53;;;5.34;100.00
82931;BME280;72705;53.346;10.248;2024-03-29T04:00:00;99435.38;;;5.31;100.00
82931;BME280;72705;53.346;10.248;2024-03-29T04:02:27;99444.59;;;5.36;100.00
82931;BME280;72705;53.346;10.248;2024-03-29T04:04:53;99449.13;;;5.52;99.66
82931;BME280;72705;53.346;10.248;2024-03-29T04:07:18;99451.91;;;5.34;100.00
82931;BME280;72705;53.346;10.248;2024-03-29T04:09:43;99437.44;;;5.53;100.00
82931;BME280;72705;53.346;10.248;2024-03-29T04:12:09;99442.94;;;5.51;99.83
82931;BME280;72705;53.346;10.248;2024-03-29T04:14:34;99440.44;;;5.50;100.00
82931;BME280;72705;53.346;10.248;2024-03-29T04:16:59;99447.00;;;5.55;98.87
82931;BME280;72705;53.346;10.248;2024-03-29T04:19:25;99429.09;;;5.48;100.00
82931;BME280;72705;53.346;10.248;2024-03-29T04:21:52;99429.44;;;5.53;100.00
82931;BME280;72705;53.346;10.248;2024-03-29T04:24:17;99443.00;;;5.67;98.29
82931;BME280;72705;53.346;10.248;2024-03-29T04:26:43;99441.66;;;5.63;98.60
82931;BME280;72705;53.346;10.248;2024-03-29T04:29:10;99429.91;;;5.56;98.98
82931;BME280;72705;53.346;10.248;2024-03-29T04:31:35;99429.25;;;5.46;99.80
82931;BME280;72705;53.346;10.248;2024-03-29T04:34:01;99431.59;;;5.57;99.33
82931;BME280;72705;53.346;10.248;2024-03-29T04:36:26;99442.28;;;5.57;99.38
82931;BME280;72705;53.346;10.248;2024-03-29T04:38:51;99448.34;;;5.67;98.94
82931;BME280;72705;53.346;10.248;2024-03-29T04:41:18;99442.78;;;5.53;99.23
82931;BME280;72705;53.346;10.248;2024-03-29T04:43:44;99435.97;;;5.58;98.73
82931;BME280;72705;53.346;10.248;2024-03-29T04:46:11;99442.94;;;5.51;98.92
82931;BME280;72705;53.346;10.248;2024-03-29T04:48:37;99450.66;;;5.62;98.16
82931;BME280;72705;53.346;10.248;2024-03-29T04:51:03;99453.19;;;5.64;98.47
82931;BME280;72705;53.346;10.248;2024-03-29T04:53:29;99463.75;;;5.74;97.98
82931;BME280;72705;53.346;10.248;2024-03-29T04:55:55;99462.44;;;5.86;97.67
82931;BME280;72705;53.346;10.248;2024-03-29T04:58:23;99465.16;;;5.94;96.98
82931;BME280;72705;53.346;10.248;2024-03-29T05:00:49;99466.31;;;5.91;97.02
82931;BME280;72705;53.346;10.248;2024-03-29T05:03:16;99472.13;;;5.87;97.08
82931;BME280;72705;53.346;10.248;2024-03-29T05:05:42;99465.78;;;5.80;97.45
82931;BME280;72705;53.346;10.248;2024-03-29T05:08:08;99475.44;;;5.81;97.10
82931;BME280;72705;53.346;10.248;2024-03-29T05:10:33;99491.91;;;5.94;96.74
82931;BME280;72705;53.346;10.248;2024-03-29T05:13:00;99484.56;;;5.96;96.57
82931;BME280;72705;53.346;10.248;2024-03-29T05:15:26;99475.53;;;5.97;96.79
82931;BME280;72705;53.346;10.248;2024-03-29T05:17:52;99486.91;;;6.07;95.11
82931;BME280;72705;53.346;10.248;2024-03-29T05:20:20;99488.75;;;5.98;96.58
82931;BME280;72705;53.346;10.248;2024-03-29T05:22:47;99489.28;;;6.10;96.15
82931;BME280;72705;53.346;10.248;2024-03-29T05:25:12;99491.28;;;6.16;95.02
82931;BME280;72705;53.346;10.248;2024-03-29T05:27:38;99482.88;;;6.11;95.48
82931;BME280;72705;53.346;10.248;2024-03-29T05:30:04;99475.22;;;6.16;94.98
82931;BME280;72705;53.346;10.248;2024-03-29T05:32:30;99489.44;;;6.25;94.81
82931;BME280;72705;53.346;10.248;2024-03-29T05:34:55;99486.59;;;6.26;94.84
82931;BME280;72705;53.346;10.248;2024-03-29T05:37:25;99505.00;;;6.21;95.39
82931;BME280;72705;53.346;10.248;2024-03-29T05:39:53;99514.38;;;6.17;95.29
82931;BME280;72705;53.346;10.248;2024-03-29T05:42:26;99515.72;;;6.21;95.55
82931;BME280;72705;53.346;10.248;2024-03-29T05:44:51;99511.34;;;6.20;95.59
82931;BME280;72705;53.346;10.248;2024-03-29T05:47:17;99516.88;;;6.19;95.39
82931;BME280;72705;53.346;10.248;2024-03-29T05:49:42;99527.44;;;6.28;94.72
82931;BME280;72705;53.346;10.248;2024-03-29T05:52:07;99523.75;;;6.29;94.59
82931;BME280;72705;53.346;10.248;2024-03-29T05:54:32;99513.72;;;6.39;94.76
82931;BME280;72705;53.346;10.248;2024-03-29T05:56:58;99510.22;;;6.47;93.71
82931;BME280;72705;53.346;10.248;2024-03-29T05:59:23;99508.88;;;6.51;93.12
82931;BME280;72705;53.346;10.248;2024-03-29T06:01:48;99517.06;;;6.58;93.00
82931;BME280;72705;53.346;10.248;2024-03-29T06:04:14;99513.72;;;6.56;93.88
82931;BME280;72705;53.346;10.248;2024-03-29T06:06:43;99522.28;;;6.59;93.44
82931;BME280;72705;53.346;10.248;2024-03-29T06:09:09;99538.81;;;6.63;94.13
82931;BME280;72705;53.346;10.248;2024-03-29T06:11:34;99532.13;;;6.67;92.83
82931;BME280;72705;53.346;10.248;2024-03-29T06:14:00;99508.00;;;6.67;93.11
82931;BME280;72705;53.346;10.248;2024-03-29T06:16:27;99531.28;;;6.82;92.16
82931;BME280;72705;53.346;10.248;2024-03-29T06:19:12;99543.19;;;6.88;91.47
82931;BME280;72705;53.346;10.248;2024-03-29T06:21:38;99529.63;;;6.89;90.81
82931;BME280;72705;53.346;10.248;2024-03-29T06:24:09;99535.28;;;7.03;90.52
82931;BME280;72705;53.346;10.248;2024-03-29T06:26:38;99532.78;;;6.93;90.55
82931;BME280;72705;53.346;10.248;2024-03-29T06:29:03;99553.19;;;7.10;90.12
82931;BME280;72705;53.346;10.248;2024-03-29T06:31:30;99549.66;;;7.10;89.95
82931;BME280;72705;53.346;10.248;2024-03-29T06:33:59;99559.75;;;7.16;89.76
82931;BME280;72705;53.346;10.248;2024-03-29T06:36:24;99555.03;;;7.18;90.49
82931;BME280;72705;53.346;10.248;2024-03-29T06:38:50;99552.03;;;7.21;89.52
82931;BME280;72705;53.346;10.248;2024-03-29T06:41:16;99545.78;;;7.28;89.00
82931;BME280;72705;53.346;10.248;2024-03-29T06:43:42;99536.78;;;7.21;89.09
82931;BME280;72705;53.346;10.248;2024-03-29T06:46:13;99553.00;;;7.28;88.68
82931;BME280;72705;53.346;10.248;2024-03-29T06:48:39;99540.41;;;7.28;89.24
82931;BME280;72705;53.346;10.248;2024-03-29T06:51:05;99544.78;;;7.29;88.90
82931;BME280;72705;53.346;10.248;2024-03-29T06:53:30;99550.44;;;7.43;88.44
82931;BME280;72705;53.346;10.248;2024-03-29T06:55:56;99549.75;;;7.49;88.50
82931;BME280;72705;53.346;10.248;2024-03-29T06:58:23;99552.41;;;7.57;87.93
82931;BME280;72705;53.346;10.248;2024-03-29T07:00:48;99551.06;;;7.61;86.98
82931;BME280;72705;53.346;10.248;2024-03-29T07:03:15;99559.38;;;7.74;86.51
82931;BME280;72705;53.346;10.248;2024-03-29T07:05:41;99539.47;;;7.68;87.51
82931;BME280;72705;53.346;10.248;2024-03-29T07:08:07;99535.41;;;7.72;87.31
82931;BME280;72705;53.346;10.248;2024-03-29T07:10:32;99541.22;;;7.84;86.10
82931;BME280;72705;53.346;10.248;2024-03-29T07:12:58;99556.81;;;7.89;86.77
82931;BME280;72705;53.346;10.248;2024-03-29T07:15:24;99562.34;;;7.95;86.58
82931;BME280;72705;53.346;10.248;2024-03-29T07:17:50;99549.22;;;8.00;86.44
82931;BME280;72705;53.346;10.248;2024-03-29T07:20:16;99551.16;;;8.15;85.28
82931;BME280;72705;53.346;10.248;2024-03-29T07:22:42;99556.84;;;8.20;85.33
82931;BME280;72705;53.346;10.248;2024-03-29T07:25:07;99535.34;;;8.20;85.24
82931;BME280;72705;53.346;10.248;2024-03-29T07:27:33;99556.97;;;8.26;85.59
82931;BME280;72705;53.346;10.248;2024-03-29T07:30:02;99581.59;;;8.30;85.04
82931;BME280;72705;53.346;10.248;2024-03-29T07:32:31;99572.69;;;8.37;84.78
82931;BME280;72705;53.346;10.248;2024-03-29T07:34:57;99577.81;;;8.47;84.03
82931;BME280;72705;53.346;10.248;2024-03-29T07:37:24;99569.84;;;8.39;85.35
82931;BME280;72705;53.346;10.248;2024-03-29T07:39:49;99584.53;;;8.51;85.28
82931;BME280;72705;53.346;10.248;2024-03-29T07:42:15;99575.75;;;8.57;84.75
82931;BME280;72705;53.346;10.248;2024-03-29T07:44:40;99577.13;;;8.53;85.80
82931;BME280;72705;53.346;10.248;2024-03-29T07:47:05;99600.88;;;8.64;85.75
82931;BME280;72705;53.346;10.248;2024-03-29T07:49:31;99587.09;;;8.67;85.99
82931;BME280;72705;53.346;10.248;2024-03-29T07:51:56;99592.78;;;8.72;85.50
82931;BME280;72705;53.346;10.248;2024-03-29T07:54:21;99609.56;;;8.74;86.38
82931;BME280;72705;53.346;10.248;2024-03-29T07:56:47;99617.63;;;8.74;85.78
82931;BME280;72705;53.346;10.248;2024-03-29T07:59:12;99605.19;;;8.73;86.56
82931;BME280;72705;53.346;10.248;2024-03-29T08:01:38;99619.19;;;8.69;87.88
82931;BME280;72705;53.346;10.248;2024-03-29T08:04:06;99611.63;;;8.64;89.25
82931;BME280;72705;53.346;10.248;2024-03-29T08:06:31;99603.97;;;8.53;89.24
82931;BME280;72705;53.346;10.248;2024-03-29T08:08:58;99608.06;;;8.49;89.83
82931;BME280;72705;53.346;10.248;2024-03-29T08:11:23;99624.13;;;8.57;91.65
82931;BME280;72705;53.346;10.248;2024-03-29T08:13:48;99623.00;;;8.51;91.94
82931;BME280;72705;53.346;10.248;2024-03-29T08:16:14;99624.06;;;8.65;92.06
82931;BME280;72705;53.346;10.248;2024-03-29T08:18:41;99631.06;;;8.74;92.17
82931;BME280;72705;53.346;10.248;2024-03-29T08:21:07;99623.75;;;8.83;93.19
82931;BME280;72705;53.346;10.248;2024-03-29T08:23:37;99632.66;;;8.83;93.82
82931;BME280;72705;53.346;10.248;2024-03-29T08:26:04;99627.25;;;8.69;96.34
82931;BME280;72705;53.346;10.248;2024-03-29T08:28:30;99620.16;;;8.76;95.57
82931;BME280;72705;53.346;10.248;2024-03-29T08:31:04;99616.63;;;8.75;95.83
82931;BME280;72705;53.346;10.248;2024-03-29T08:33:32;99607.00;;;8.81;96.48
82931;BME280;72705;53.346;10.248;2024-03-29T08:35:58;99614.28;;;8.72;96.88
82931;BME280;72705;53.346;10.248;2024-03-29T08:38:23;99583.34;;;8.76;99.27
82931;BME280;72705;53.346;10.248;2024-03-29T08:40:50;99582.38;;;8.92;98.76
82931;BME280;72705;53.346;10.248;2024-03-29T08:43:16;99560.34;;;8.74;99.13
82931;BME280;72705;53.346;10.248;2024-03-29T08:45:44;99565.53;;;8.75;100.00
82931;BME280;72705;53.346;10.248;2024-03-29T08:48:10;99557.78;;;8.80;100.00
82931;BME280;72705;53.346;10.248;2024-03-29T08:50:36;99553.78;;;8.76;100.00
82931;BME280;72705;53.346;10.248;2024-03-29T08:53:05;99552.16;;;8.67;100.00
82931;BME280;72705;53.346;10.248;2024-03-29T08:55:31;99559.22;;;8.68;100.00
82931;BME280;72705;53.346;10.248;2024-03-29T08:58:01;99562.31;;;8.80;100.00
82931;BME280;72705;53.346;10.248;2024-03-29T09:00:28;99555.84;;;8.66;100.00
82931;BME280;72705;53.346;10.248;2024-03-29T09:02:54;99549.66;;;8.66;100.00
82931;BME280;72705;53.346;10.248;2024-03-29T09:05:20;99544.09;;;8.67;100.00
82931;BME280;72705;53.346;10.248;2024-03-29T09:07:45;99543.03;;;8.76;100.00
82931;BME280;72705;53.346;10.248;2024-03-29T09:10:13;99552.75;;;8.77;99.79
82931;BME280;72705;53.346;10.248;2024-03-29T09:12:38;99544.38;;;8.72;100.00
82931;BME280;72705;53.346;10.248;2024-03-29T09:15:05;99548.09;;;8.71;100.00
82931;BME280;72705;53.346;10.248;2024-03-29T09:17:38;99540.44;;;8.60;100.00
82931;BME280;72705;53.346;10.248;2024-03-29T09:20:05;99544.53;;;8.56;100.00
82931;BME280;72705;53.346;10.248;2024-03-29T09:22:30;99540.81;;;8.57;100.00
82931;BME280;72705;53.346;10.248;2024-03-29T09:24:55;99545.38;;;8.57;100.00
82931;BME280;72705;53.346;10.248;2024-03-29T09:27:21;99540.50;;;8.52;100.00
82931;BME280;72705;53.346;10.248;2024-03-29T09:29:48;99532.03;;;8.63;100.00
82931;BME280;72705;53.346;10.248;2024-03-29T09:32:14;99521.66;;;8.60;100.00
82931;BME280;72705;53.346;10.248;2024-03-29T09:34:44;99548.50;;;8.60;100.00
82931;BME280;72705;53.346;10.248;2024-03-29T09:37:09;99537.66;;;8.53;100.00
82931;BME280;72705;53.346;10.248;2024-03-29T09:39:35;99535.06;;;8.60;100.00
82931;BME280;72705;53.346;10.248;2024-03-29T09:42:02;99534.50;;;8.50;100.00
82931;BME280;72705;53.346;10.248;2024-03-29T09:44:31;99522.41;;;8.46;100.00
82931;BME280;72705;53.346;10.248;2024-03-29T09:47:05;99525.44;;;8.51;100.00
82931;BME280;72705;53.346;10.248;2024-03-29T09:49:31;99526.19;;;8.60;100.00
82931;BME280;72705;53.346;10.248;2024-03-29T09:52:00;99533.13;;;8.54;100.00
82931;BME280;72705;53.346;10.248;2024-03-29T09:54:28;99534.34;;;8.66;100.00
82931;BME280;72705;53.346;10.248;2024-03-29T09:56:57;99528.25;;;8.72;100.00
82931;BME280;72705;53.346;10.248;2024-03-29T09:59:23;99523.50;;;8.60;100.00
82931;BME280;72705;53.346;10.248;2024-03-29T10:01:50;99515.72;;;8.65;100.00
82931;BME280;72705;53.346;10.248;2024-03-29T10:04:18;99521.22;;;8.71;100.00
82931;BME280;72705;53.346;10.248;2024-03-29T10:06:46;99513.81;;;8.73;100.00
82931;BME280;72705;53.346;10.248;2024-03-29T10:09:14;99511.78;;;8.75;100.00
82931;BME280;72705;53.346;10.248;2024-03-29T10:11:40;99501.97;;;8.82;100.00
82931;BME280;72705;53.346;10.248;2024-03-29T10:14:05;99489.56;;;8.96;100.00
82931;BME280;72705;53.346;10.248;2024-03-29T10:16:31;99493.91;;;8.97;99.29
82931;BME280;72705;53.346;10.248;2024-03-29T10:18:59;99475.28;;;8.96;99.90
82931;BME280;72705;53.346;10.248;2024-03-29T10:21:25;99499.78;;;9.01;98.34
82931;BME280;72705;53.346;10.248;2024-03-29T10:23:53;99515.75;;;9.17;98.72
82931;BME280;72705;53.346;10.248;2024-03-29T10:26:20;99514.06;;;9.45;96.83
82931;BME280;72705;53.346;10.248;2024-03-29T10:28:46;99506.31;;;9.50;97.07
82931;BME280;72705;53.346;10.248;2024-03-29T10:31:12;99493.94;;;9.56;97.29
82931;BME280;72705;53.346;10.248;2024-03-29T10:33:39;99494.84;;;9.78;96.46
82931;BME280;72705;53.346;10.248;2024-03-29T10:36:07;99499.03;;;9.65;97.15
82931;BME280;72705;53.346;10.248;2024-03-29T10:38:34;99499.50;;;9.40;97.58
82931;BME280;72705;53.346;10.248;2024-03-29T10:41:01;99486.72;;;9.42;97.52
82931;BME280;72705;53.346;10.248;2024-03-29T10:43:28;99497.94;;;9.45;98.58
82931;BME280;72705;53.346;10.248;2024-03-29T10:46:05;99495.44;;;9.44;97.76
82931;BME280;72705;53.346;10.248;2024-03-29T10:48:31;99492.84;;;9.50;98.85
82931;BME280;72705;53.346;10.248;2024-03-29T10:51:01;99484.91;;;9.63;96.84
82931;BME280;72705;53.346;10.248;2024-03-29T10:53:29;99503.63;;;9.50;98.49
82931;BME280;72705;53.346;10.248;2024-03-29T10:55:57;99511.22;;;9.61;97.57
82931;BME280;72705;53.346;10.248;2024-03-29T10:58:25;99487.91;;;9.68;98.07
82931;BME280;72705;53.346;10.248;2024-03-29T11:00:56;99473.97;;;9.80;96.20
82931;BME280;72705;53.346;10.248;2024-03-29T11:04:05;99504.69;;;10.21;95.08
82931;BME280;72705;53.346;10.248;2024-03-29T11:06:27;99495.59;;;10.22;95.47
82931;BME280;72705;53.346;10.248;2024-03-29T11:08:56;99496.88;;;10.26;95.79
82931;BME280;72705;53.346;10.248;2024-03-29T11:11:24;99484.81;;;10.43;94.87
82931;BME280;72705;53.346;10.248;2024-03-29T11:14:03;99489.66;;;10.76;93.62
82931;BME280;72705;53.346;10.248;2024-03-29T11:16:33;99495.81;;;10.91;92.12
82931;BME280;72705;53.346;10.248;2024-03-29T11:18:59;99494.88;;;10.77;93.08
82931;BME280;72705;53.346;10.248;2024-03-29T11:21:30;99491.31;;;10.98;92.12
82931;BME280;72705;53.346;10.248;2024-03-29T11:23:57;99500.31;;;10.84;92.40
82931;BME280;72705;53.346;10.248;2024-03-29T11:26:22;99493.34;;;10.96;92.16
82931;BME280;72705;53.346;10.248;2024-03-29T11:28:51;99496.78;;;11.11;91.88
82931;BME280;72705;53.346;10.248;2024-03-29T11:31:17;99492.75;;;11.28;91.38
82931;BME280;72705;53.346;10.248;2024-03-29T11:36:15;99487.81;;;11.04;91.78
82931;BME280;72705;53.346;10.248;2024-03-29T11:38:42;99498.34;;;10.99;91.86
82931;BME280;72705;53.346;10.248;2024-03-29T11:41:12;99499.78;;;10.95;92.93
82931;BME280;72705;53.346;10.248;2024-03-29T11:43:38;99504.47;;;10.86;92.85
82931;BME280;72705;53.346;10.248;2024-03-29T11:46:06;99517.53;;;10.83;94.28
82931;BME280;72705;53.346;10.248;2024-03-29T11:48:32;99519.25;;;10.90;94.24
82931;BME280;72705;53.346;10.248;2024-03-29T11:50:59;99513.88;;;10.69;94.19
82931;BME280;72705;53.346;10.248;2024-03-29T11:53:25;99515.88;;;10.61;95.75
82931;BME280;72705;53.346;10.248;2024-03-29T11:55:53;99515.06;;;10.60;95.80
82931;BME280;72705;53.346;10.248;2024-03-29T11:58:23;99497.13;;;10.52;96.21
82931;BME280;72705;53.346;10.248;2024-03-29T12:00:49;99499.25;;;10.57;96.72
82931;BME280;72705;53.346;10.248;2024-03-29T12:03:16;99505.78;;;10.69;96.67
82931;BME280;72705;53.346;10.248;2024-03-29T12:05:45;99508.94;;;10.73;95.62
82931;BME280;72705;53.346;10.248;2024-03-29T12:08:11;99501.94;;;10.78;95.65
82931;BME280;72705;53.346;10.248;2024-03-29T12:10:37;99516.09;;;10.87;95.10
82931;BME280;72705;53.346;10.248;2024-03-29T12:13:06;99509.13;;;10.99;94.95
82931;BME280;72705;53.346;10.248;2024-03-29T12:15:32;99505.47;;;11.07;94.18
82931;BME280;72705;53.346;10.248;2024-03-29T12:17:59;99506.75;;;11.11;93.55
82931;BME280;72705;53.346;10.248;2024-03-29T12:20:25;99514.25;;;11.15;94.00
82931;BME280;72705;53.346;10.248;2024-03-29T12:22:50;99516.84;;;11.30;93.79
82931;BME280;72705;53.346;10.248;2024-03-29T12:25:16;99500.75;;;11.50;93.39
82931;BME280;72705;53.346;10.248;2024-03-29T12:27:42;99506.00;;;11.58;93.88
82931;BME280;72705;53.346;10.248;2024-03-29T12:30:09;99501.19;;;11.47;92.29
82931;BME280;72705;53.346;10.248;2024-03-29T12:32:34;99491.63;;;11.51;92.29
82931;BME280;72705;53.346;10.248;2024-03-29T12:35:10;99499.06;;;11.77;92.18
82931;BME280;72705;53.346;10.248;2024-03-29T12:37:36;99509.38;;;12.07;91.22
82931;BME280;72705;53.346;10.248;2024-03-29T12:40:02;99511.91;;;12.15;91.65
82931;BME280;72705;53.346;10.248;2024-03-29T12:42:39;99524.59;;;12.22;90.16
82931;BME280;72705;53.346;10.248;2024-03-29T12:45:05;99526.94;;;12.38;88.22
82931;BME280;72705;53.346;10.248;2024-03-29T12:47:32;99531.84;;;12.14;89.18
82931;BME280;72705;53.346;10.248;2024-03-29T12:49:59;99535.44;;;11.81;91.66
82931;BME280;72705;53.346;10.248;2024-03-29T12:52:25;99541.47;;;11.83;91.18
82931;BME280;72705;53.346;10.248;2024-03-29T12:54:51;99540.91;;;11.94;91.87